Meredith, NH (03253)

10:57 AM EDT on March 28, 2015 (GMT -0400)
KNHWEIRS3 | | Change Station
CLOSE
Current Station
Personal Weather Station
Location: Weirs Beach, NH
Elevation: 837 ft
Nearby Weather Stations

Elev 837 ft 43.55 °N, 71.43 °W | Updated 6 minutes ago

Snow
Snow
33.2 °F
Feels Like 28 °F
N
6.0
Wind Variable Wind from NE
Gusts 6.0 mph

Today
High -- | Low -- °F
--% Chance of Precip.
Yesterday
High -- | Low -- °F
Precip. -- in
6:35 AM 7:07 PM
Waxing Gibbous, 63% visible
Pressure 29.84 in
Visibility 2.0 miles
Clouds Overcast 1000 ft
Windchill 28 °F
Dew Point 30 °F
Humidity 86%
Rainfall 0.02 in
Snow Depth Not available.
UV 2 out of 12
Pollen .60 out of 12
Air Quality Not available.
Flu Activity Not available.
METAR K1P1 281455Z AUTO 29005KT 2SM -SN OVC010 M02/M03 A2984 RMK AO2 T10181030

More Conditions Fewer Conditions

Pressure 29.84 in
Visibility 2.0 miles
Clouds Overcast 1000 ft
Windchill 28 °F
Dew Point 30 °F
Humidity 86%
Rainfall 0.02 in
Snow Depth Not available.
UV 2 out of 12
Pollen .60 out of 12
Air Quality Not available.
Flu Activity Not available.
METAR K1P1 281455Z AUTO 29005KT 2SM -SN OVC010 M02/M03 A2984 RMK AO2 T10181030

More Conditions Fewer Conditions

10-Day Weather Forecast

Almanac

Astronomy

Mar. 28, 2015 Rise Set
Actual Time
Civil Twilight
Nautical Twilight
Astronomical Twilight
Moon
Length of Visible Light
Length of Day
Tomorrow will be .
, % of the Moon is Illuminated

Today's Extremes

State Highs State Lows

Community

WunderPhotos

Upload Photos

1,808,991 photos uploaded!

WunderBlogs® & News

Nearby

Air Quality

  Air Quality AQ Index Pollutant
Not available.

Snow Depth

Station Depth Elevation

Earthquake Activity

City Distance Mag. Time & Date
Minimum magnitude displayed is 2.5.

Coastal Water Temperatures

Place Temperature

Stations

Nearby Weather Stations

Station Location Temp. Windchill Dew Point Humidity Wind Precip. Elev Updated Type